Aérodrome :
LOGIN :

S'inscrire | Disclaimer

   EN    FR    IT 

 










Légende :    VFR   VFR Marginal   IFR   IFR Intensif   IFR Très Intensif
Visi : 
Plafond : 
>= 8 km
>= 3000ft
5 à 8 km
1000 à 3000 ft
1500m à 5 km
500 à 1000 ft
800 à 1500m
200 à 500 ft
< 800m
< 200 ft
Symboles :   Orages  Brouillard  Fortes neiges  Fortes précipitations  Vent > 20 kt
SIGMETs :   Divers  Orages  Givrage  Turbulence  Onde Orograph.  Cendres Volcan.







- Altitude de l'aérodrome : 1325 ft
- Code IATA : EBU
- Voir les cartes d'approche


LFMH - St-Etienne Boutheon

DERNIER METAR :
  • 211230Z AUTO 24010KT 200V270 CAVOK 27/09 Q1017 TEMPO 36010G25KT

METARs EXPIRÉS :
  • 211200Z AUTO 27011KT 240V300 CAVOK 28/09 Q1017 TEMPO 36010G25KT
  • 211130Z AUTO 28010KT 260V320 CAVOK 26/06 Q1017 NOSIG
  • 211100Z AUTO 29008KT 270V330 CAVOK 26/12 Q1017 NOSIG
  • 211030Z AUTO 26009KT 230V290 CAVOK 28/12 Q1017 TEMPO 36010G25KT
  • 211000Z AUTO 23007KT 160V310 CAVOK 29/12 Q1017 NOSIG
  • 210930Z AUTO 18010KT 150V220 CAVOK 27/10 Q1017 NOSIG

TAF TAF LFMH
Valide du 21 à 09h jusqu'au 22 à 09h UTC


210800Z 2109/2209 18010KT CAVOK
BECMG 2109/2112 25015KT
PROB40
TEMPO 2112/2118 36010G25KT BKN033 OVC080
PROB40
TEMPO 2118/2121 4000 RA SCT014 BKN020
BECMG 2203/2206 CAVOK
PROB30
TEMPO 2203/2209 3000 BR
ATIS : +33 4 77 36 17 51
Pas de NOTAMs connus pour ce terrain.



MET'MAP, la Météo Aéronautique d'un coup d'oeil ! - Copyright ORBIFLY Décembre 2007 - Disclaimer

ORBIFLY MET'MAP TEAM :

Programmation & Développement : Alexandra Zaïnal
Conception & Développement : Baudouin d'Aumeries
Co-Programmation & Développement : Marc-Olivier Méhu
Soutien technique & logistique : Manuel Goepfert

Contact : metmap@orbifly.com




SOURCES & CREDITS :

   NOAA